New Smithville, Pennsylvania
Current Conditions -  °F | °C
As of 5:54 AM on Saturday 20 Dec 2014 (Local Time) from KRDG Reporting Station
Overcast Overcast  
Wind Chill: 27°   Ceiling: 3100
Heat Index: 32°   Visibility: 10mi
Dew Point: 19°   Wind: 5mph
Humidity: 59%   Direction: 350°N
Pressure: 30.25"   Gusts: NA
Location:  40.5336°N, 75.7775°W
Report Text: KRDG 201054Z AUTO 35004KT 10SM OVC031 00/M07 A3025 RMK AO2 SLP251 T00001072
Loading
Personal Weather Stations






























Interactive Weather Map New forecast layout! Learn more

10-Day Weather Forecast

Advertisements
Track Severe Weather on mobile